Impacts TAF Board INFO
FOR SITUATIONAL AWARENESS. NOT TO BE USED FOR FLIGHT PLANNING PURPOSES.
IDs:

KFLL - Ft Lauderdale-Hollyw, FL, US

Issued at 0250 UTC 22 Nov 2017
Updated at 0343 UTC 22 Nov 2017
Potential Impact None Slight Moderate High
Time<<22/16Z 22/17Z 22/18Z 22/19Z 22/20Z 22/21Z 22/22Z 22/23Z 23/00Z 23/01Z 23/02Z 23/03Z 23/04Z>>
Type PRVL PRVL PRVL PRVL PRVL PRVL PRVL PRVL PRVL PRVL PRVL PRVL PRVL
VIS >6 >6 >6 >6 >6 >6 >6 >6 >6 >6 >6 >6 >6
CIG -- -- -- -- -- -- -- -- -- -- -- -- --
Cover SCT SCT SCT SCT SCT SCT SCT SCT SCT SCT SCT SCT SCT
FltCat VFR VFR VFR VFR VFR VFR VFR VFR VFR VFR VFR VFR VFR
WX -- -- -- -- -- -- -- -- -- -- -- -- --
WDir 80 80 80 80 80 80 80 80 VRB VRB VRB VRB VRB
WSpd 10 10 10 10 10 10 10 10 3 3 3 3 3
WGst -- -- -- -- -- -- -- -- -- -- -- -- --

Raw TAF
KFLL 220250Z 2203/2306 VRB02KT P6SM FEW030
  FM221600 08010KT P6SM SCT030
  FM230000 VRB03KT P6SM FEW030 SCT250


METAR Board
Radar Display
Forecast Discussion

FOR SITUATIONAL AWARENESS. NOT TO BE USED FOR FLIGHT PLANNING PURPOSES.